createdAt,value
2023-03-07T00:02:25.328Z,6.63
2023-03-07T00:04:54.057Z,7.13
2023-03-07T00:07:21.744Z,7.13
2023-03-07T00:09:49.132Z,6.97
2023-03-07T00:12:16.614Z,7.23
2023-03-07T00:14:43.966Z,6.93
2023-03-07T00:17:11.407Z,7.40
2023-03-07T00:19:38.788Z,6.67
2023-03-07T00:22:07.547Z,6.70
2023-03-07T00:24:35.161Z,7.13
2023-03-07T00:27:02.840Z,7.20
2023-03-07T00:29:30.330Z,7.33
2023-03-07T00:31:57.699Z,6.93
2023-03-07T00:34:25.132Z,7.43
2023-03-07T00:36:53.525Z,7.67
2023-03-07T00:39:22.457Z,7.23
2023-03-07T00:41:49.811Z,6.63
2023-03-07T00:44:17.142Z,8.00
2023-03-07T00:46:44.509Z,7.73
2023-03-07T00:49:11.978Z,7.87
2023-03-07T00:51:39.572Z,7.93
2023-03-07T00:54:07.724Z,7.77
2023-03-07T00:56:37.739Z,7.83
2023-03-07T00:59:05.436Z,7.37
2023-03-07T01:01:33.150Z,6.70
2023-03-07T01:04:00.624Z,7.47
2023-03-07T01:06:29.593Z,7.43
2023-03-07T01:08:58.452Z,7.33
2023-03-07T01:11:26.712Z,7.40
2023-03-07T01:13:57.463Z,7.67
2023-03-07T01:16:26.074Z,7.40
2023-03-07T01:18:54.788Z,7.60
2023-03-07T01:21:24.444Z,7.87
2023-03-07T01:23:52.105Z,7.60
2023-03-07T01:26:20.522Z,7.63
2023-03-07T01:28:48.736Z,7.47
2023-03-07T01:31:17.564Z,7.17
2023-03-07T01:33:44.959Z,7.27
2023-03-07T01:36:17.873Z,7.90
2023-03-07T01:38:46.188Z,7.53
2023-03-07T01:41:13.760Z,8.20
2023-03-07T01:43:43.455Z,7.37
2023-03-07T01:46:36.284Z,7.53
2023-03-07T01:49:07.390Z,7.90
2023-03-07T01:51:37.462Z,8.03
2023-03-07T01:54:07.017Z,7.80
2023-03-07T01:56:35.459Z,6.97
2023-03-07T01:59:03.448Z,7.87
2023-03-07T02:01:30.845Z,7.03
2023-03-07T02:04:00.077Z,8.17
2023-03-07T02:06:30.922Z,7.33
2023-03-07T02:08:59.386Z,6.80
2023-03-07T02:11:27.555Z,7.37
2023-03-07T02:13:54.945Z,7.67
2023-03-07T02:16:22.931Z,7.30
2023-03-07T02:18:50.982Z,7.03
2023-03-07T02:21:24.380Z,7.47
2023-03-07T02:23:56.949Z,7.57
2023-03-07T02:26:29.539Z,7.03
2023-03-07T02:28:59.011Z,6.90
2023-03-07T02:31:27.318Z,8.20
2023-03-07T02:33:54.911Z,6.67
2023-03-07T02:36:24.158Z,7.77
2023-03-07T02:39:02.630Z,6.93
2023-03-07T02:41:31.643Z,7.70
2023-03-07T02:44:03.733Z,7.23
2023-03-07T02:46:31.606Z,8.03
2023-03-07T02:48:59.258Z,6.57
2023-03-07T02:51:26.907Z,7.60
2023-03-07T02:53:54.357Z,7.27
2023-03-07T02:56:22.188Z,6.90
2023-03-07T02:58:49.575Z,7.00
2023-03-07T03:01:18.597Z,7.03
2023-03-07T03:03:46.072Z,6.37
2023-03-07T03:06:15.066Z,6.70
2023-03-07T03:08:42.418Z,6.93
2023-03-07T03:11:09.881Z,6.73
2023-03-07T03:13:39.091Z,6.63
2023-03-07T03:16:07.851Z,6.40
2023-03-07T03:18:37.456Z,7.30
2023-03-07T03:21:08.157Z,6.70
2023-03-07T03:23:35.539Z,6.63
2023-03-07T03:26:07.493Z,6.57
2023-03-07T03:28:34.976Z,6.60
2023-03-07T03:31:04.139Z,6.80
2023-03-07T03:33:32.399Z,5.33
2023-03-07T03:36:06.358Z,6.37
2023-03-07T03:38:34.310Z,5.57
2023-03-07T03:41:04.145Z,6.13
2023-03-07T03:43:31.481Z,6.10
2023-03-07T03:45:58.974Z,5.80
2023-03-07T03:48:28.665Z,6.60
2023-03-07T03:51:04.954Z,6.87
2023-03-07T03:53:32.760Z,9.47
2023-03-07T03:56:03.844Z,6.40
2023-03-07T03:58:31.454Z,7.53
2023-03-07T04:00:59.145Z,11.63
2023-03-07T04:03:26.485Z,6.93
2023-03-07T04:05:54.856Z,8.90
2023-03-07T04:08:23.665Z,6.47
2023-03-07T04:10:50.993Z,6.33
2023-03-07T04:13:18.432Z,5.27
2023-03-07T04:15:46.835Z,5.13
2023-03-07T04:18:14.182Z,5.60
2023-03-07T04:20:46.106Z,5.33
2023-03-07T04:23:13.960Z,6.87
2023-03-07T04:25:47.608Z,7.57
2023-03-07T04:28:15.185Z,10.23
2023-03-07T04:30:42.552Z,11.47
2023-03-07T04:33:10.146Z,9.70
2023-03-07T04:35:37.744Z,9.47
2023-03-07T04:38:05.268Z,13.73
2023-03-07T04:40:32.810Z,7.00
2023-03-07T04:43:01.653Z,5.83
2023-03-07T04:45:31.026Z,5.97
2023-03-07T04:47:58.395Z,5.60
2023-03-07T04:50:25.781Z,5.30
2023-03-07T04:52:53.225Z,6.20
2023-03-07T04:55:20.621Z,6.80
2023-03-07T04:57:49.397Z,7.40
2023-03-07T05:00:18.853Z,8.43
2023-03-07T05:02:48.468Z,8.50
2023-03-07T05:05:17.594Z,7.70
2023-03-07T05:07:45.311Z,8.03
2023-03-07T05:10:13.507Z,8.40
2023-03-07T05:12:41.035Z,11.20
2023-03-07T05:15:11.435Z,7.90
2023-03-07T05:17:41.001Z,5.93
2023-03-07T05:20:10.855Z,7.53
2023-03-07T05:22:38.343Z,6.90
2023-03-07T05:25:07.065Z,8.93
2023-03-07T05:27:34.920Z,7.53
2023-03-07T05:30:02.298Z,7.30
2023-03-07T05:32:30.539Z,7.40
2023-03-07T05:34:59.363Z,7.57
2023-03-07T05:37:26.856Z,6.70
2023-03-07T05:39:54.593Z,6.90
2023-03-07T05:42:22.332Z,5.13
2023-03-07T05:44:50.161Z,6.27
2023-03-07T05:47:17.861Z,6.10
2023-03-07T05:49:45.264Z,6.17
2023-03-07T05:52:15.018Z,5.70
2023-03-07T05:54:42.402Z,5.90
2023-03-07T05:57:09.923Z,4.43
2023-03-07T05:59:37.951Z,5.57
2023-03-07T06:02:06.484Z,5.37
2023-03-07T06:04:33.860Z,5.00
2023-03-07T06:07:01.359Z,5.00
2023-03-07T06:09:30.104Z,4.67
2023-03-07T06:11:59.545Z,5.40
2023-03-07T06:14:26.893Z,5.87
2023-03-07T06:16:54.253Z,3.30
2023-03-07T06:19:22.012Z,5.27
2023-03-07T06:21:50.838Z,4.87
2023-03-07T06:24:19.505Z,5.70
2023-03-07T06:26:48.936Z,5.30
2023-03-07T06:29:19.658Z,5.17
2023-03-07T06:31:50.958Z,3.87
2023-03-07T06:34:18.469Z,5.10
2023-03-07T06:36:48.455Z,4.90
2023-03-07T06:39:16.942Z,5.53
2023-03-07T06:41:44.315Z,4.60
2023-03-07T06:44:13.183Z,3.97
2023-03-07T06:46:40.500Z,3.70
2023-03-07T06:49:13.074Z,4.90
2023-03-07T06:51:40.467Z,4.70
2023-03-07T06:54:08.382Z,5.00
2023-03-07T06:56:35.854Z,3.33
2023-03-07T06:59:03.604Z,5.17
2023-03-07T07:01:32.462Z,3.90
2023-03-07T07:04:00.780Z,4.90
2023-03-07T07:06:29.351Z,4.73
2023-03-07T07:08:57.265Z,4.17
2023-03-07T07:11:27.370Z,4.00
2023-03-07T07:13:55.624Z,3.57
2023-03-07T07:16:24.075Z,3.20
2023-03-07T07:18:53.356Z,4.40
2023-03-07T07:21:21.470Z,3.83
2023-03-07T07:23:48.965Z,4.53
2023-03-07T07:26:16.345Z,4.07
2023-03-07T07:28:43.704Z,3.10
2023-03-07T07:31:11.086Z,4.43
2023-03-07T07:33:38.778Z,3.60
2023-03-07T07:36:09.763Z,3.57
2023-03-07T07:38:37.623Z,3.23
2023-03-07T07:41:05.393Z,3.33
2023-03-07T07:43:33.671Z,3.73
2023-03-07T07:46:10.515Z,3.73
2023-03-07T07:48:38.337Z,2.70
2023-03-07T07:51:06.720Z,3.80
2023-03-07T07:53:38.494Z,4.00
2023-03-07T07:56:06.383Z,3.77
2023-03-07T07:58:34.129Z,4.77
2023-03-07T08:01:12.596Z,3.60
2023-03-07T08:03:39.922Z,3.70
2023-03-07T08:06:07.396Z,2.97
2023-03-07T08:08:34.750Z,3.33
2023-03-07T08:11:03.533Z,3.43
2023-03-07T08:13:31.143Z,3.27
2023-03-07T08:15:58.524Z,3.00
2023-03-07T08:18:25.861Z,2.27
2023-03-07T08:20:53.209Z,3.43
2023-03-07T08:23:20.541Z,3.00
2023-03-07T08:25:48.024Z,3.20
2023-03-07T08:28:16.684Z,3.70
2023-03-07T08:30:44.031Z,2.97
2023-03-07T08:33:11.497Z,3.33
2023-03-07T08:35:40.049Z,2.90
2023-03-07T08:38:07.414Z,1.73
2023-03-07T08:40:34.891Z,2.17
2023-03-07T08:43:02.224Z,1.33
2023-03-07T08:45:30.953Z,2.47
2023-03-07T08:47:58.555Z,3.03
2023-03-07T08:50:28.439Z,0.80
2023-03-07T08:52:57.560Z,2.87
2023-03-07T08:55:25.260Z,2.80
2023-03-07T08:57:52.679Z,1.70
2023-03-07T09:00:20.670Z,2.03
2023-03-07T09:02:49.377Z,2.40
2023-03-07T09:05:16.925Z,2.50
2023-03-07T09:07:44.369Z,2.80
2023-03-07T09:10:12.441Z,2.03
2023-03-07T09:12:39.759Z,2.73
2023-03-07T09:15:07.740Z,2.00
2023-03-07T09:17:35.085Z,2.00
2023-03-07T09:20:04.439Z,2.67
2023-03-07T09:22:31.766Z,2.20
2023-03-07T09:24:59.108Z,1.23
2023-03-07T09:27:26.568Z,1.67
2023-03-07T09:29:53.908Z,2.73
2023-03-07T09:32:21.316Z,1.87
2023-03-07T09:34:48.732Z,2.37
2023-03-07T09:37:18.760Z,2.97
2023-03-07T09:39:46.350Z,3.30
2023-03-07T09:42:17.883Z,2.10
2023-03-07T09:44:53.763Z,2.87
2023-03-07T09:47:26.520Z,2.13
2023-03-07T09:49:54.413Z,2.47
2023-03-07T09:52:25.748Z,2.20
2023-03-07T09:54:56.617Z,1.50
2023-03-07T09:57:25.188Z,3.10
2023-03-07T09:59:54.068Z,3.30
2023-03-07T10:02:24.418Z,2.70
2023-03-07T10:04:53.328Z,3.57
2023-03-07T10:07:21.941Z,3.37
2023-03-07T10:09:51.706Z,2.63
2023-03-07T10:12:31.025Z,2.40
2023-03-07T10:15:14.762Z,4.03
2023-03-07T10:17:48.161Z,3.73
2023-03-07T10:20:20.182Z,3.30
2023-03-07T10:22:53.387Z,3.60
2023-03-07T10:25:26.461Z,4.20
2023-03-07T10:27:55.010Z,3.90
2023-03-07T10:30:22.426Z,3.60
2023-03-07T10:32:52.645Z,3.13
2023-03-07T10:35:21.554Z,3.70
2023-03-07T10:37:51.224Z,3.30
2023-03-07T10:40:25.159Z,3.13
2023-03-07T10:42:53.476Z,3.83
2023-03-07T10:45:21.078Z,3.67
2023-03-07T10:47:48.581Z,3.50
2023-03-07T10:50:24.393Z,4.23
2023-03-07T10:52:54.447Z,2.83
2023-03-07T10:55:37.659Z,3.33
2023-03-07T10:58:15.793Z,4.13
2023-03-07T11:00:44.318Z,3.33
2023-03-07T11:03:23.038Z,1.70
2023-03-07T11:05:50.548Z,3.63
2023-03-07T11:08:22.216Z,3.50
2023-03-07T11:10:50.995Z,3.50
2023-03-07T11:13:19.532Z,2.57
2023-03-07T11:15:47.157Z,3.50
2023-03-07T11:18:26.370Z,2.07
2023-03-07T11:20:53.871Z,3.70
2023-03-07T11:23:23.355Z,3.57
2023-03-07T11:25:52.973Z,3.23
2023-03-07T11:28:25.859Z,3.90
2023-03-07T11:30:53.900Z,2.60
2023-03-07T11:33:25.848Z,4.07
2023-03-07T11:35:57.985Z,3.43
2023-03-07T11:38:29.357Z,3.43
2023-03-07T11:41:01.302Z,2.67
2023-03-07T11:43:37.402Z,2.93
2023-03-07T11:46:08.350Z,3.43
2023-03-07T11:48:42.546Z,3.17
2023-03-07T11:51:19.700Z,2.33
2023-03-07T11:53:53.753Z,1.73
2023-03-07T11:56:29.030Z,2.60
2023-03-07T11:59:18.297Z,3.00
2023-03-07T12:01:48.212Z,2.83
2023-03-07T12:04:39.561Z,3.00
2023-03-07T12:07:14.459Z,3.10
2023-03-07T12:09:46.422Z,3.53
2023-03-07T12:12:19.015Z,3.13
2023-03-07T12:14:51.087Z,3.50
2023-03-07T12:17:24.537Z,2.80
2023-03-07T12:20:05.874Z,3.60
2023-03-07T12:22:39.471Z,3.10
2023-03-07T12:25:16.819Z,3.20
2023-03-07T12:27:47.589Z,4.00
2023-03-07T12:30:17.504Z,2.43
2023-03-07T12:32:45.345Z,2.57
2023-03-07T12:35:19.012Z,3.30
2023-03-07T12:37:48.547Z,3.30
2023-03-07T12:40:20.982Z,3.30
2023-03-07T12:42:54.835Z,2.90
2023-03-07T12:45:24.882Z,2.00
2023-03-07T12:47:58.329Z,3.20
2023-03-07T12:50:28.737Z,3.50
2023-03-07T12:52:57.147Z,3.80
2023-03-07T12:55:26.642Z,2.83
2023-03-07T12:57:58.708Z,2.53
2023-03-07T13:00:26.577Z,2.33
2023-03-07T13:02:58.149Z,2.73
2023-03-07T13:05:25.848Z,3.60
2023-03-07T13:07:53.951Z,3.03
2023-03-07T13:10:22.082Z,3.17
2023-03-07T13:12:49.791Z,3.07
2023-03-07T13:15:36.086Z,2.90
2023-03-07T13:18:05.548Z,4.20
2023-03-07T13:20:37.635Z,3.20
2023-03-07T13:23:23.416Z,3.60
2023-03-07T13:25:56.836Z,3.30
2023-03-07T13:28:35.278Z,4.47
2023-03-07T13:31:35.630Z,3.63
2023-03-07T13:34:20.774Z,3.80
2023-03-07T13:36:49.423Z,3.80
2023-03-07T13:39:36.086Z,3.47
2023-03-07T13:42:03.450Z,2.60
2023-03-07T13:44:37.673Z,3.03
2023-03-07T13:47:05.726Z,2.30
2023-03-07T13:49:43.292Z,2.17
2023-03-07T13:52:22.446Z,1.90
2023-03-07T13:54:50.648Z,1.80
2023-03-07T13:57:18.585Z,3.33
2023-03-07T13:59:48.320Z,1.93
2023-03-07T14:02:17.438Z,2.57
2023-03-07T14:04:46.457Z,0.87
2023-03-07T14:07:19.662Z,2.50
2023-03-07T14:09:50.083Z,3.70
2023-03-07T14:12:22.931Z,2.67
2023-03-07T14:15:01.316Z,2.53
2023-03-07T14:17:34.926Z,2.33
2023-03-07T14:20:11.234Z,2.33
2023-03-07T14:22:55.370Z,2.90
2023-03-07T14:25:25.549Z,2.43
2023-03-07T14:27:54.316Z,2.87
2023-03-07T14:30:22.563Z,2.23
2023-03-07T14:32:50.735Z,2.40
2023-03-07T14:35:32.941Z,1.43
2023-03-07T14:38:00.419Z,2.53
2023-03-07T14:40:33.646Z,4.07
2023-03-07T14:43:07.813Z,2.27
2023-03-07T14:45:39.053Z,2.87
2023-03-07T14:48:19.546Z,3.60
2023-03-07T14:50:46.961Z,2.50
2023-03-07T14:53:16.216Z,2.83
2023-03-07T14:55:45.920Z,2.53
2023-03-07T14:58:17.062Z,1.60
2023-03-07T15:00:44.818Z,2.67
2023-03-07T15:03:12.924Z,2.40
2023-03-07T15:05:48.647Z,3.00
2023-03-07T15:08:19.928Z,2.33
2023-03-07T15:10:50.526Z,2.33
2023-03-07T15:13:21.272Z,1.60
2023-03-07T15:15:52.341Z,2.13
2023-03-07T15:18:21.694Z,2.67
2023-03-07T15:20:49.740Z,2.07
2023-03-07T15:23:20.739Z,2.60
2023-03-07T15:25:49.730Z,2.77
2023-03-07T15:28:18.476Z,0.87
2023-03-07T15:30:47.999Z,2.17
2023-03-07T15:33:17.122Z,2.53
2023-03-07T15:35:45.258Z,2.60
2023-03-07T15:38:15.187Z,1.77
2023-03-07T15:40:42.697Z,2.03
2023-03-07T15:43:25.879Z,2.40
2023-03-07T15:46:01.692Z,2.50
2023-03-07T15:48:33.138Z,2.20
2023-03-07T15:51:01.802Z,2.20
2023-03-07T15:53:30.830Z,2.40
2023-03-07T15:55:59.048Z,2.30
2023-03-07T15:58:28.109Z,2.30
2023-03-07T16:01:04.950Z,2.43
2023-03-07T16:03:32.384Z,2.33
2023-03-07T16:06:00.711Z,1.90
2023-03-07T16:08:28.319Z,2.20
2023-03-07T16:10:58.329Z,2.00
2023-03-07T16:13:27.842Z,2.13
2023-03-07T16:16:04.444Z,2.30
2023-03-07T16:18:32.155Z,3.03
2023-03-07T16:20:59.866Z,2.07
2023-03-07T16:23:28.725Z,2.73
2023-03-07T16:25:56.286Z,2.63
2023-03-07T16:28:23.683Z,2.60
2023-03-07T16:30:51.030Z,2.47
2023-03-07T16:33:19.709Z,2.17
2023-03-07T16:35:47.630Z,2.43
2023-03-07T16:38:15.059Z,2.43
2023-03-07T16:40:43.711Z,1.43
2023-03-07T16:43:28.757Z,2.20
2023-03-07T16:45:56.144Z,2.80
2023-03-07T16:48:24.830Z,2.43
2023-03-07T16:50:52.187Z,3.10
2023-03-07T16:53:19.519Z,2.40
2023-03-07T16:55:47.148Z,2.20
2023-03-07T16:58:19.603Z,1.60
2023-03-07T17:00:47.310Z,2.77
2023-03-07T17:03:14.680Z,3.00
2023-03-07T17:05:43.374Z,2.00
2023-03-07T17:08:11.056Z,2.60
2023-03-07T17:10:38.585Z,2.57
2023-03-07T17:13:06.522Z,2.67
2023-03-07T17:15:33.945Z,2.13
2023-03-07T17:18:01.655Z,1.20
2023-03-07T17:20:29.063Z,3.37
2023-03-07T17:22:57.945Z,1.53
2023-03-07T17:25:26.153Z,1.50
2023-03-07T17:27:54.988Z,2.43
2023-03-07T17:30:23.211Z,2.83
2023-03-07T17:32:50.576Z,2.10
2023-03-07T17:35:18.458Z,2.63
2023-03-07T17:37:47.878Z,2.87
2023-03-07T17:40:16.756Z,2.63
2023-03-07T17:42:44.706Z,2.70
2023-03-07T17:45:12.987Z,2.23
2023-03-07T17:47:40.895Z,1.43
2023-03-07T17:50:09.376Z,2.10
2023-03-07T17:52:37.021Z,2.53
2023-03-07T17:55:04.399Z,3.10
2023-03-07T17:57:33.061Z,2.13
2023-03-07T18:00:00.384Z,3.40
2023-03-07T18:02:27.760Z,3.00
2023-03-07T18:04:55.193Z,2.83
2023-03-07T18:07:23.049Z,3.60
2023-03-07T18:09:58.870Z,3.07
2023-03-07T18:12:35.842Z,3.37
2023-03-07T18:15:05.098Z,2.40
2023-03-07T18:17:46.665Z,2.67
2023-03-07T18:20:14.963Z,2.10
2023-03-07T18:22:42.509Z,2.47
2023-03-07T18:25:11.748Z,1.93
2023-03-07T18:27:40.450Z,1.50
2023-03-07T18:30:08.311Z,1.53
2023-03-07T18:32:35.719Z,1.70
2023-03-07T18:35:03.342Z,1.50
2023-03-07T18:37:30.678Z,1.43
2023-03-07T18:39:58.012Z,1.37
2023-03-07T18:42:25.371Z,1.10
2023-03-07T18:44:54.460Z,1.10
2023-03-07T18:47:21.961Z,1.10
2023-03-07T18:49:50.727Z,1.17
2023-03-07T18:52:18.644Z,1.37
2023-03-07T18:54:45.996Z,1.20
2023-03-07T18:57:16.328Z,1.20
2023-03-07T18:59:43.798Z,1.37
2023-03-07T19:02:12.660Z,1.40
2023-03-07T19:04:40.008Z,1.50
2023-03-07T19:07:07.390Z,1.20
2023-03-07T19:09:34.720Z,1.73
2023-03-07T19:12:02.196Z,1.60
2023-03-07T19:14:29.839Z,1.50
2023-03-07T19:16:57.289Z,1.43
2023-03-07T19:19:25.980Z,1.47
2023-03-07T19:21:53.360Z,1.50
2023-03-07T19:24:20.995Z,1.57
2023-03-07T19:26:49.424Z,1.53
2023-03-07T19:29:17.049Z,1.60
2023-03-07T19:31:44.497Z,1.47
2023-03-07T19:34:11.969Z,1.60
2023-03-07T19:36:41.517Z,1.90
2023-03-07T19:39:10.529Z,1.70
2023-03-07T19:41:39.536Z,1.70
2023-03-07T19:44:11.961Z,1.37
2023-03-07T19:46:39.403Z,1.50
2023-03-07T19:49:07.862Z,1.77
2023-03-07T19:51:35.317Z,1.30
2023-03-07T19:54:04.413Z,1.27
2023-03-07T19:56:32.588Z,1.30
2023-03-07T19:59:00.764Z,1.40
2023-03-07T20:01:29.152Z,1.37
2023-03-07T20:03:57.172Z,1.90
2023-03-07T20:06:25.863Z,1.70
2023-03-07T20:08:53.880Z,1.60
2023-03-07T20:11:26.685Z,2.00
2023-03-07T20:13:54.946Z,1.63
2023-03-07T20:16:22.552Z,1.90
2023-03-07T20:18:50.455Z,1.73
2023-03-07T20:21:17.831Z,2.10
2023-03-07T20:23:46.269Z,1.70
2023-03-07T20:26:14.950Z,2.30
2023-03-07T20:28:44.004Z,2.03
2023-03-07T20:31:12.111Z,1.80
2023-03-07T20:33:40.639Z,2.10
2023-03-07T20:36:09.113Z,2.30
2023-03-07T20:38:37.338Z,1.90
2023-03-07T20:41:06.183Z,2.30
2023-03-07T20:43:33.857Z,2.00
2023-03-07T20:46:06.127Z,1.93
2023-03-07T20:48:33.553Z,1.60
2023-03-07T20:51:05.157Z,2.27
2023-03-07T20:53:32.688Z,2.53
2023-03-07T20:56:03.303Z,2.77
2023-03-07T20:58:30.755Z,2.43
2023-03-07T21:00:58.293Z,2.60
2023-03-07T21:03:27.216Z,2.70
2023-03-07T21:05:55.093Z,2.50
2023-03-07T21:08:22.512Z,3.20
2023-03-07T21:10:58.601Z,3.20
2023-03-07T21:13:25.950Z,3.23
2023-03-07T21:15:53.949Z,2.80
2023-03-07T21:18:21.494Z,3.13
2023-03-07T21:20:50.408Z,3.23
2023-03-07T21:23:18.216Z,3.10
2023-03-07T21:25:46.609Z,3.03
2023-03-07T21:28:13.973Z,3.10
2023-03-07T21:30:41.420Z,3.00
2023-03-07T21:33:08.834Z,3.47
2023-03-07T21:35:37.537Z,2.97
2023-03-07T21:38:06.761Z,3.93
2023-03-07T21:40:34.378Z,3.53
2023-03-07T21:43:01.757Z,3.53
2023-03-07T21:45:29.143Z,4.43
2023-03-07T21:47:56.656Z,4.40
2023-03-07T21:50:24.360Z,4.60
2023-03-07T21:52:51.681Z,4.40
2023-03-07T21:55:20.614Z,4.70
2023-03-07T21:57:47.934Z,4.33
2023-03-07T22:00:16.821Z,4.63
2023-03-07T22:02:44.269Z,3.47
2023-03-07T22:05:12.429Z,4.43
2023-03-07T22:07:40.289Z,4.23
2023-03-07T22:10:08.211Z,4.40
2023-03-07T22:12:36.907Z,3.63
2023-03-07T22:15:04.963Z,3.70
2023-03-07T22:17:33.728Z,3.87
2023-03-07T22:20:01.083Z,3.43
2023-03-07T22:22:28.450Z,3.10
2023-03-07T22:24:55.809Z,3.13
2023-03-07T22:27:23.160Z,3.30
2023-03-07T22:29:51.817Z,2.70
2023-03-07T22:32:19.187Z,3.37
2023-03-07T22:34:46.623Z,2.40
2023-03-07T22:37:13.953Z,2.13
2023-03-07T22:39:41.296Z,2.70
2023-03-07T22:42:08.636Z,2.57
2023-03-07T22:44:36.026Z,1.90
2023-03-07T22:47:04.918Z,2.23
2023-03-07T22:49:32.460Z,2.30
2023-03-07T22:51:59.922Z,2.23
2023-03-07T22:54:27.559Z,2.27
2023-03-07T22:56:54.945Z,2.10
2023-03-07T22:59:22.392Z,2.27
2023-03-07T23:01:49.752Z,2.20
2023-03-07T23:04:18.478Z,2.13
2023-03-07T23:06:45.833Z,1.80
2023-03-07T23:09:13.157Z,2.20
2023-03-07T23:11:43.632Z,2.37
2023-03-07T23:14:10.963Z,2.10
2023-03-07T23:16:39.246Z,1.80
2023-03-07T23:19:06.994Z,2.13
2023-03-07T23:21:35.668Z,1.90
2023-03-07T23:24:03.648Z,2.00
2023-03-07T23:26:32.646Z,1.63
2023-03-07T23:29:00.143Z,1.80
2023-03-07T23:31:28.666Z,1.70
2023-03-07T23:33:56.581Z,1.27
2023-03-07T23:36:24.065Z,0.70
2023-03-07T23:38:52.792Z,1.03
2023-03-07T23:41:20.435Z,1.20
2023-03-07T23:43:47.815Z,1.30
2023-03-07T23:46:15.219Z,1.00
2023-03-07T23:48:42.854Z,0.43
2023-03-07T23:51:10.196Z,1.03
2023-03-07T23:53:37.613Z,0.50
2023-03-07T23:56:07.492Z,0.63
2023-03-07T23:58:34.956Z,0.87
